METAR Data
IDs: Format: Raw Decoded Include TAF

Data at: 0855 UTC 26 Jan 2020

KRZN 260835Z AUTO 27003KT 10SM OVC010 M03/M05 A2993 RMK AO2 T10331048
KRZN 260815Z AUTO 30004KT 10SM OVC010 M03/M05 A2993 RMK AO2 T10321046
KRZN 260755Z AUTO 32007KT 10SM OVC010 M03/M05 A2993 RMK AO2 T10321047
KRZN 260735Z AUTO 28005KT 10SM OVC010 M03/M04 A2993 RMK AO2 T10301045
KRZN 260715Z AUTO 29004KT 10SM OVC010 M03/M04 A2993 RMK AO2 T10301045
KRZN 260655Z AUTO 29004KT 10SM OVC010 M03/M04 A2993 RMK AO2 T10301045
KRZN 260635Z AUTO 30004KT 10SM OVC010 M03/M04 A2993 RMK AO2 T10301043
KRZN 260615Z AUTO 30006KT 10SM OVC010 M03/M04 A2993 RMK AO2 T10281043
KRZN 260555Z AUTO 29004KT 10SM OVC010 M03/M04 A2993 RMK AO2 T10261041 11011 21049 400071049
KRZN 260535Z AUTO 29004KT 10SM OVC010 M02/M04 A2993 RMK AO2 T10251040
KRZN 260515Z AUTO 33003KT 10SM OVC010 M02/M04 A2993 RMK AO2 T10251040
KRZN 260455Z AUTO 32005KT 10SM OVC010 M02/M04 A2993 RMK AO2 T10251040
KRZN 260435Z AUTO 33005KT 10SM OVC010 M02/M04 A2993 RMK AO2 T10251040
KRZN 260415Z AUTO 34004KT 10SM OVC010 M02/M04 A2992 RMK AO2 T10231038
KRZN 260355Z AUTO 31005KT 10SM OVC010 M02/M04 A2993 RMK AO2 T10221037
KRZN 260335Z AUTO 32005KT 10SM OVC010 M02/M04 A2993 RMK AO2 T10211036
KRZN 260315Z AUTO 00000KT 10SM OVC010 M02/M04 A2993 RMK AO2 T10211036
KRZN 260255Z AUTO 29003KT 10SM OVC012 M02/M04 A2992 RMK AO2 T10251037
KRZN 260235Z AUTO 31003KT 10SM OVC012 M03/M04 A2993 RMK AO2 T10271040
KRZN 260215Z AUTO 00000KT 10SM OVC012 M03/M04 A2993 RMK AO2 T10321045
KRZN 260155Z AUTO 31005KT 10SM BKN012 M03/M04 A2993 RMK AO2 T10341043
KRZN 260135Z AUTO 30005KT 10SM CLR M04/M06 A2992 RMK AO2 T10431056
KRZN 260115Z AUTO 30005KT 10SM CLR M03/M05 A2992 RMK AO2 T10291048
KRZN 260055Z AUTO 29005KT 10SM CLR M03/M05 A2992 RMK AO2 T10341049
KRZN 260035Z AUTO 31004KT 7SM CLR M03/M04 A2991 RMK AO2 T10281041
KRZN 260015Z AUTO 32003KT 10SM SCT045 M02/M04 A2991 RMK AO2 T10191042
KRZN 252355Z AUTO 31003KT 10SM OVC045 M01/M04 A2991 RMK AO2 60001 T10111037 10007 21011
KRZN 252335Z AUTO 29003KT 10SM OVC045 M01/M04 A2991 RMK AO2 T10071037
KRZN 252315Z AUTO 31005KT 10SM OVC045 00/M03 A2991 RMK AO2 T00001035
KRZN 252255Z AUTO 30005KT 10SM OVC045 01/M03 A2990 RMK AO2 T00051032
KRZN 252235Z AUTO 32005KT 10SM BKN043 00/M03 A2990 RMK AO2 T00041032
KRZN 252215Z AUTO 33007KT 10SM SCT039 BKN047 00/M03 A2990 RMK AO2 T00041032
KRZN 252155Z AUTO 31006KT 10SM OVC047 01/M03 A2991 RMK AO2 T00051030
KRZN 252135Z AUTO 31008KT 10SM OVC043 01/M03 A2990 RMK AO2 T00071028
KRZN 252115Z AUTO 33004KT 10SM SCT014 OVC041 01/M03 A2990 RMK AO2 T00051027
KRZN 252055Z AUTO 31008KT 10SM SCT014 SCT034 OVC041 00/M03 A2991 RMK AO2 P0001 60001 T00041029
KRZN 252035Z AUTO 32007KT 7SM BKN014 BKN033 OVC038 00/M02 A2991 RMK AO2 P0001 T00001024
KRZN 252015Z AUTO 32008KT 4SM -SN SCT012 BKN017 OVC038 00/M02 A2991 RMK AO2 P0001 T00011023
KRZN 251955Z AUTO 32008KT 7SM -SN BKN017 BKN026 OVC035 00/M03 A2991 RMK AO2 T00001028
KRZN 251935Z AUTO 31008KT 10SM -SN SCT015 BKN026 OVC035 00/M03 A2991 RMK AO2 T00021030
KRZN 251915Z AUTO 31007KT 10SM -SN OVC026 00/M03 A2992 RMK AO2 T00001031
KRZN 251855Z AUTO 32007KT 10SM -SN SCT013 OVC024 00/M03 A2993 RMK AO2 T10051035
KRZN 251835Z AUTO 30008KT 10SM -SN SCT013 BKN024 OVC055 00/M04 A2993 RMK AO2 T10051036
KRZN 251815Z AUTO 32007KT 10SM OVC020 M01/M04 A2993 RMK AO2 T10061037
KRZN 251755Z AUTO 33006KT 10SM BKN013 OVC020 M01/M04 A2993 RMK AO2 T10091037 11009 21024
KRZN 251735Z AUTO 33008KT 10SM OVC011 M01/M04 A2994 RMK AO2 T10131036
KRZN 251715Z AUTO 32007KT 10SM BKN009 OVC015 M01/M03 A2994 RMK AO2 T10121035
KRZN 251655Z AUTO 32006KT 10SM BKN009 OVC017 M01/M03 A2994 RMK AO2 T10111033
KRZN 251635Z AUTO 32006KT 10SM OVC009 M01/M03 A2994 RMK AO2 T10131033
KRZN 251615Z AUTO 32006KT 10SM OVC009 M01/M03 A2994 RMK AO2 T10151032
KRZN 251555Z AUTO 32006KT 10SM OVC009 M02/M03 A2993 RMK AO2 T10161033
KRZN 251535Z AUTO 33003KT 10SM OVC009 M02/M03 A2993 RMK AO2 T10181033
KRZN 251515Z AUTO 32005KT 10SM OVC009 M02/M03 A2993 RMK AO2 T10191033
KRZN 251455Z AUTO 32003KT 10SM OVC009 M02/M03 A2993 RMK AO2 T10201035
KRZN 251435Z AUTO 33004KT 10SM OVC009 M02/M03 A2993 RMK AO2 T10211035
KRZN 251415Z AUTO 34004KT 10SM -SN OVC009 M02/M03 A2993 RMK AO2 T10221035
KRZN 251355Z AUTO 33005KT 10SM OVC009 M02/M03 A2993 RMK AO2 T10221035
KRZN 251335Z AUTO 34003KT 10SM -SN OVC009 M02/M03 A2993 RMK AO2 T10231035
KRZN 251315Z AUTO 34006KT 10SM OVC009 M02/M03 A2993 RMK AO2 T10231034
KRZN 251255Z AUTO 32006KT 10SM OVC009 M02/M03 A2993 RMK AO2 T10231033
KRZN 251235Z AUTO 33005KT 10SM OVC009 M02/M03 A2993 RMK AO2 T10231033
KRZN 251215Z AUTO 33005KT 10SM OVC009 M02/M03 A2992 RMK AO2 T10231032
KRZN 251155Z AUTO 35007KT 10SM OVC007 M02/M03 A2992 RMK AO2 70001 T10231031 11016 21023
KRZN 251135Z AUTO 35005KT 10SM OVC007 M02/M03 A2991 RMK AO2 T10231030
KRZN 251115Z AUTO 34005KT 5SM BR OVC007 M02/M03 A2992 RMK AO2 T10221030
KRZN 251055Z AUTO 34005KT 5SM BR OVC009 M02/M03 A2992 RMK AO2 T10211030
KRZN 251035Z AUTO 35006KT 2 1/2SM -SN OVC011 M02/M03 A2992 RMK AO2 T10211030
KRZN 251015Z AUTO 34006KT 2SM -SN SCT007 OVC011 M02/M03 A2992 RMK AO2 T10211030
KRZN 250955Z AUTO 35006KT 1 1/2SM -SN SCT008 OVC013 M02/M03 A2992 RMK AO2 T10211030
KRZN 250935Z AUTO 34007KT 1 1/4SM -SN OVC008 M02/M03 A2992 RMK AO2 T10211029
KRZN 250915Z AUTO 34006KT 2 1/2SM -SN OVC006 M02/M03 A2992 RMK AO2 T10201027
KRZN 250855Z AUTO 34006KT 5SM -SN OVC006 M02/M02 A2992 RMK AO2 T10181025
KRZN 250835Z AUTO 34005KT 3SM -SN OVC006 M02/M02 A2992 RMK AO2 T10181025
KRZN 250815Z AUTO 34005KT 1 3/4SM -SN OVC006 M02/M02 A2993 RMK AO2 T10171025
KRZN 250755Z AUTO 34006KT 2 1/2SM -SN OVC006 M02/M03 A2993 RMK AO2 T10181026
KRZN 250735Z AUTO 35005KT 5SM -SN OVC006 M02/M03 A2993 RMK AO2 T10181026
KRZN 250715Z AUTO 36006KT 10SM OVC006 M02/M03 A2993 RMK AO2 T10181027
KRZN 250655Z AUTO 35007KT 10SM OVC008 M02/M03 A2993 RMK AO2 T10181028
KRZN 250635Z AUTO 35008KT 5SM BR OVC008 M02/M03 A2993 RMK AO2 T10171027
KRZN 250615Z AUTO 35007KT 4SM -SN OVC008 M02/M03 A2994 RMK AO2 T10161027
KRZN 250555Z AUTO 34007KT 5SM BR OVC008 M02/M03 A2994 RMK AO2 T10161027 10000 21016 400101025
KRZN 250535Z AUTO 36006KT 7SM OVC008 M01/M03 A2995 RMK AO2 T10151026
KRZN 250515Z AUTO 36007KT 10SM OVC010 M01/M03 A2995 RMK AO2 T10121026
KRZN 250455Z AUTO 35007KT 10SM -SN OVC010 M01/M02 A2995 RMK AO2 T10101025
KRZN 250435Z AUTO 34007KT 10SM OVC008 M01/M02 A2995 RMK AO2 T10091023
KRZN 250415Z AUTO 34006KT 10SM OVC008 M01/M02 A2995 RMK AO2 T10081020
KRZN 250355Z AUTO 35005KT 10SM OVC008 M01/M02 A2996 RMK AO2 T10061017
KRZN 250335Z AUTO 34005KT 10SM OVC008 00/M01 A2995 RMK AO2 T10011011
KRZN 250315Z AUTO 01004KT 10SM OVC010 00/M01 A2996 RMK AO2 T00001010
KRZN 250255Z AUTO 36005KT 10SM BKN010 OVC014 00/M01 A2996 RMK AO2 T10011011
KRZN 250235Z AUTO 01005KT 10SM BKN012 BKN018 OVC075 00/M01 A2996 RMK AO2 T10011011
KRZN 250215Z AUTO 01004KT 10SM BKN010 OVC018 00/M01 A2996 RMK AO2 T10011011
KRZN 250155Z AUTO 35005KT 10SM BKN010 OVC018 00/M01 A2996 RMK AO2 T00001010
KRZN 250135Z AUTO 01004KT 10SM BKN010 OVC018 00/M01 A2997 RMK AO2 T00001010
KRZN 250115Z AUTO 36005KT 10SM BKN010 OVC021 00/M01 A2997 RMK AO2 T00001010
KRZN 250055Z AUTO 36005KT 10SM SCT010 OVC023 00/M01 A2998 RMK AO2 T00001010
KRZN 250035Z AUTO 36006KT 10SM SCT010 SCT018 OVC023 00/M01 A2998 RMK AO2 T00001010
KRZN 250015Z AUTO 36005KT 10SM BKN010 OVC023 00/M01 A2998 RMK AO2 T00001009
KRZN 242355Z AUTO 01005KT 7SM OVC010 00/M01 A2998 RMK AO2 T00001007 10010 20000
KRZN 242335Z AUTO 01004KT 10SM OVC010 00/M01 A2998 RMK AO2 T00001006
KRZN 242315Z AUTO 01004KT 10SM OVC010 00/M01 A2998 RMK AO2 T00011006
KRZN 242255Z AUTO 36004KT 10SM OVC008 00/M01 A2998 RMK AO2 T00021006
KRZN 242235Z AUTO 36005KT 10SM -SN BKN008 OVC016 00/M01 A2998 RMK AO2 T00021007
KRZN 242215Z AUTO 01007KT 10SM SCT008 OVC016 00/M01 A2997 RMK AO2 T00041007
KRZN 242155Z AUTO 01005KT 10SM BKN018 OVC024 01/M01 A2997 RMK AO2 T00051007
KRZN 242135Z AUTO 03006KT 5SM -SN SCT016 BKN020 OVC024 01/M01 A2998 RMK AO2 T00051008
KRZN 242115Z AUTO 03005KT 4SM -SN OVC016 01/M01 A2997 RMK AO2 T00061010